createdAt,value
2018-12-06T00:03:59.127Z,77.58
2018-12-06T00:09:01.467Z,76.52
2018-12-06T00:14:04.124Z,76.63
2018-12-06T00:19:08.151Z,77.64
2018-12-06T00:24:10.536Z,76.51
2018-12-06T00:29:12.827Z,76.61
2018-12-06T00:34:15.112Z,77.16
2018-12-06T00:39:17.490Z,77.44
2018-12-06T00:44:19.796Z,79.29
2018-12-06T00:49:22.064Z,79.76
2018-12-06T00:54:24.316Z,79.40
2018-12-06T00:59:26.657Z,80.13
2018-12-06T01:04:29.197Z,79.46
2018-12-06T01:09:31.822Z,79.21
2018-12-06T01:14:39.995Z,78.69
2018-12-06T01:19:42.279Z,79.71
2018-12-06T01:24:44.557Z,78.53
2018-12-06T01:29:46.924Z,79.25
2018-12-06T01:34:49.185Z,79.06
2018-12-06T01:39:51.513Z,78.58
2018-12-06T01:44:53.793Z,78.36
2018-12-06T01:49:56.041Z,78.92
2018-12-06T01:54:58.308Z,77.92
2018-12-06T02:00:00.600Z,79.77
2018-12-06T02:05:03.242Z,78.57
2018-12-06T02:10:06.365Z,78.53
2018-12-06T02:15:08.916Z,78.05
2018-12-06T02:20:11.213Z,79.10
2018-12-06T02:25:13.616Z,78.80
2018-12-06T02:30:15.893Z,77.81
2018-12-06T02:35:18.205Z,76.68
2018-12-06T02:40:20.566Z,75.90
2018-12-06T02:45:22.841Z,75.96
2018-12-06T02:50:25.130Z,76.06
2018-12-06T02:55:27.420Z,76.34
2018-12-06T03:00:29.716Z,74.54
2018-12-06T03:05:32.106Z,75.67
2018-12-06T03:10:34.526Z,74.93
2018-12-06T03:15:36.799Z,75.69
2018-12-06T03:20:39.679Z,75.67
2018-12-06T03:25:41.966Z,74.61
2018-12-06T03:30:44.267Z,72.82
2018-12-06T03:35:46.635Z,72.94
2018-12-06T03:40:48.988Z,71.13
2018-12-06T03:45:52.366Z,72.71
2018-12-06T03:50:54.676Z,71.80
2018-12-06T03:55:56.957Z,70.81
2018-12-06T04:00:59.214Z,71.60
2018-12-06T04:06:01.603Z,71.41
2018-12-06T04:11:04.115Z,71.44
2018-12-06T04:16:06.342Z,71.36
2018-12-06T04:21:08.560Z,70.23
2018-12-06T04:26:10.869Z,69.96
2018-12-06T04:31:13.139Z,70.86
2018-12-06T04:36:17.388Z,70.97
2018-12-06T04:41:19.690Z,71.57
2018-12-06T04:46:21.951Z,70.52
2018-12-06T04:51:24.399Z,69.54
2018-12-06T04:56:27.283Z,71.22
2018-12-06T05:01:29.565Z,71.12
2018-12-06T05:06:31.855Z,70.58
2018-12-06T05:11:34.115Z,71.00
2018-12-06T05:16:36.446Z,71.18
2018-12-06T05:21:38.694Z,72.74
2018-12-06T05:26:40.920Z,71.80
2018-12-06T05:31:43.139Z,72.09
2018-12-06T05:36:45.342Z,72.76
2018-12-06T05:41:47.547Z,72.38
2018-12-06T05:46:49.787Z,73.59
2018-12-06T05:51:52.001Z,74.09
2018-12-06T05:56:54.212Z,73.52
2018-12-06T06:01:56.429Z,72.80
2018-12-06T06:07:01.273Z,73.63
2018-12-06T06:12:03.709Z,74.37
2018-12-06T06:17:05.951Z,74.18
2018-12-06T06:22:08.262Z,74.90
2018-12-06T06:27:10.480Z,75.64
2018-12-06T06:32:12.718Z,77.00
2018-12-06T06:37:14.935Z,76.82
2018-12-06T06:42:17.278Z,77.63
2018-12-06T06:47:19.710Z,77.62
2018-12-06T06:52:21.962Z,78.17
2018-12-06T06:57:24.172Z,78.12
2018-12-06T07:02:26.389Z,78.19
2018-12-06T07:07:28.641Z,78.50
2018-12-06T07:12:30.899Z,78.66
2018-12-06T07:17:33.173Z,79.47
2018-12-06T07:22:35.531Z,79.58
2018-12-06T07:27:37.783Z,80.10
2018-12-06T07:32:40.020Z,79.77
2018-12-06T07:37:42.362Z,79.77
2018-12-06T07:42:44.593Z,79.35
2018-12-06T07:48:22.048Z,80.35
2018-12-06T07:53:24.303Z,80.09
2018-12-06T07:58:26.645Z,80.40
2018-12-06T08:03:28.891Z,80.50
2018-12-06T08:08:31.159Z,80.68
2018-12-06T08:13:33.526Z,80.80
2018-12-06T08:18:35.990Z,80.52
2018-12-06T08:23:38.330Z,80.44
2018-12-06T08:28:40.594Z,80.40
2018-12-06T08:33:42.849Z,81.12
2018-12-06T08:38:45.209Z,80.32
2018-12-06T08:43:47.589Z,80.35
2018-12-06T08:48:49.912Z,80.61
2018-12-06T08:53:52.196Z,80.57
2018-12-06T08:58:54.471Z,80.85
2018-12-06T09:03:56.743Z,81.22
2018-12-06T09:08:58.986Z,80.74
2018-12-06T09:14:01.777Z,81.25
2018-12-06T09:19:04.162Z,81.15
2018-12-06T09:24:06.519Z,80.95
2018-12-06T09:29:08.890Z,80.83
2018-12-06T09:34:11.117Z,81.30
2018-12-06T09:39:13.440Z,80.66
2018-12-06T09:44:15.814Z,81.06
2018-12-06T09:49:18.075Z,80.72
2018-12-06T09:54:20.339Z,81.34
2018-12-06T09:59:22.768Z,80.77
2018-12-06T10:04:24.972Z,81.28
2018-12-06T10:09:27.332Z,80.88
2018-12-06T10:14:29.737Z,81.15
2018-12-06T10:19:32.000Z,80.89
2018-12-06T10:24:34.249Z,80.39
2018-12-06T10:29:36.529Z,80.56
2018-12-06T10:34:38.869Z,80.25
2018-12-06T10:39:41.121Z,80.89
2018-12-06T10:44:43.393Z,81.93
2018-12-06T10:49:45.891Z,83.18
2018-12-06T10:54:48.195Z,83.13
2018-12-06T10:59:50.453Z,83.07
2018-12-06T11:04:52.676Z,84.21
2018-12-06T11:09:55.215Z,83.71
2018-12-06T11:14:57.458Z,83.57
2018-12-06T11:19:59.783Z,83.77
2018-12-06T11:25:02.126Z,84.32
2018-12-06T11:30:06.040Z,84.37
2018-12-06T11:35:08.441Z,84.55
2018-12-06T11:40:10.780Z,85.14
2018-12-06T11:45:13.099Z,85.10
2018-12-06T11:50:15.397Z,85.09
2018-12-06T11:55:17.806Z,84.88
2018-12-06T12:00:20.618Z,84.47
2018-12-06T12:05:22.853Z,84.26
2018-12-06T12:10:25.261Z,84.02
2018-12-06T12:15:27.519Z,83.87
2018-12-06T12:20:29.818Z,83.62
2018-12-06T12:27:41.556Z,83.60
2018-12-06T12:32:43.819Z,82.96
2018-12-06T12:37:46.149Z,83.57
2018-12-06T12:42:48.517Z,83.44
2018-12-06T12:47:50.839Z,83.55
2018-12-06T12:52:53.120Z,83.18
2018-12-06T12:57:55.343Z,82.88
2018-12-06T13:02:57.597Z,82.92
2018-12-06T13:07:59.836Z,83.01
2018-12-06T13:13:02.208Z,82.74
2018-12-06T13:18:04.649Z,82.71
2018-12-06T13:23:06.911Z,82.89
2018-12-06T13:28:09.400Z,82.49
2018-12-06T13:33:12.880Z,83.02
2018-12-06T13:38:15.182Z,82.92
2018-12-06T13:43:17.421Z,83.04
2018-12-06T13:48:19.642Z,83.38
2018-12-06T13:53:21.936Z,84.20
2018-12-06T13:58:24.161Z,83.71
2018-12-06T14:03:26.406Z,83.82
2018-12-06T14:08:28.679Z,84.14
2018-12-06T14:13:31.042Z,84.41
2018-12-06T14:18:33.249Z,84.61
2018-12-06T14:23:35.506Z,85.26
2018-12-06T14:28:37.771Z,85.06
2018-12-06T14:33:39.979Z,84.77
2018-12-06T14:38:42.197Z,85.38
2018-12-06T14:43:44.512Z,85.12
2018-12-06T14:48:46.789Z,85.52
2018-12-06T14:53:49.044Z,85.99
2018-12-06T14:58:51.401Z,86.33
2018-12-06T15:03:53.719Z,85.89
2018-12-06T15:08:55.990Z,86.71
2018-12-06T15:13:58.317Z,85.75
2018-12-06T15:19:00.547Z,85.86
2018-12-06T15:24:02.945Z,86.33
2018-12-06T15:29:05.201Z,85.82
2018-12-06T15:34:07.452Z,86.10
2018-12-06T15:39:09.706Z,86.24
2018-12-06T15:44:12.066Z,86.23
2018-12-06T15:49:14.424Z,86.58
2018-12-06T15:54:16.722Z,86.51
2018-12-06T15:59:19.007Z,86.44
2018-12-06T16:04:21.251Z,85.87
2018-12-06T16:09:23.510Z,86.12
2018-12-06T16:14:25.771Z,85.78
2018-12-06T16:19:28.014Z,86.01
2018-12-06T16:24:30.308Z,86.85
2018-12-06T16:29:32.570Z,86.98
2018-12-06T16:34:34.799Z,87.25
2018-12-06T16:39:37.778Z,87.62
2018-12-06T16:44:40.114Z,87.82
2018-12-06T16:49:42.623Z,87.52
2018-12-06T16:54:44.903Z,87.89
2018-12-06T16:59:47.287Z,88.39
2018-12-06T17:04:49.575Z,88.46
2018-12-06T17:09:51.829Z,88.26
2018-12-06T17:14:54.094Z,88.15
2018-12-06T17:19:56.410Z,88.16
2018-12-06T17:24:58.694Z,88.04
2018-12-06T17:30:01.157Z,87.75
2018-12-06T17:35:03.943Z,87.59
2018-12-06T17:40:06.435Z,87.68
2018-12-06T17:45:08.923Z,87.62
2018-12-06T17:50:12.469Z,87.43
2018-12-06T17:55:14.832Z,87.83
2018-12-06T18:00:17.149Z,87.56
2018-12-06T18:05:19.553Z,87.45
2018-12-06T18:10:22.799Z,87.06
2018-12-06T18:15:26.009Z,87.04
2018-12-06T18:20:28.231Z,87.39
2018-12-06T18:25:30.454Z,87.32
2018-12-06T18:30:32.840Z,87.07
2018-12-06T18:35:35.060Z,87.09
2018-12-06T18:40:38.369Z,87.22
2018-12-06T18:45:40.784Z,87.20
2018-12-06T18:50:44.434Z,86.98
2018-12-06T18:55:47.170Z,87.31
2018-12-06T19:00:49.767Z,87.49
2018-12-06T19:05:52.048Z,87.52
2018-12-06T19:10:54.512Z,87.05
2018-12-06T19:15:58.133Z,87.53
2018-12-06T19:21:01.554Z,87.75
2018-12-06T19:26:03.928Z,87.60
2018-12-06T19:31:06.214Z,87.76
2018-12-06T19:36:08.592Z,87.37
2018-12-06T19:41:10.840Z,87.54
2018-12-06T19:46:13.379Z,87.96
2018-12-06T19:51:15.953Z,87.97
2018-12-06T19:56:18.219Z,87.86
2018-12-06T20:01:21.658Z,87.85
2018-12-06T20:06:23.959Z,87.42
2018-12-06T20:11:28.888Z,87.99
2018-12-06T20:16:31.501Z,87.38
2018-12-06T20:21:33.754Z,87.81
2018-12-06T20:26:36.029Z,87.68
2018-12-06T20:31:38.385Z,88.02
2018-12-06T20:36:40.705Z,88.28
2018-12-06T20:41:43.000Z,88.35
2018-12-06T20:46:45.350Z,88.45
2018-12-06T20:51:47.617Z,88.60
2018-12-06T20:56:49.959Z,88.66
2018-12-06T21:01:52.489Z,88.14
2018-12-06T21:06:54.923Z,87.85
2018-12-06T21:11:57.218Z,87.99
2018-12-06T21:16:59.468Z,88.43
2018-12-06T21:22:01.986Z,88.23
2018-12-06T21:27:04.361Z,88.55
2018-12-06T21:32:06.829Z,88.35
2018-12-06T21:37:09.131Z,88.59
2018-12-06T21:42:11.653Z,88.67
2018-12-06T21:47:19.801Z,88.16
2018-12-06T21:52:22.195Z,88.13
2018-12-06T21:57:24.416Z,88.29
2018-12-06T22:02:27.154Z,88.55
2018-12-06T22:07:29.428Z,87.65
2018-12-06T22:12:31.761Z,87.11
2018-12-06T22:17:34.035Z,87.66
2018-12-06T22:22:36.289Z,87.62
2018-12-06T22:27:38.534Z,87.70
2018-12-06T22:32:40.912Z,87.53
2018-12-06T22:37:43.166Z,87.65
2018-12-06T22:42:45.457Z,87.46
2018-12-06T22:47:47.706Z,87.92
2018-12-06T22:52:50.081Z,87.16
2018-12-06T22:57:52.333Z,86.98
2018-12-06T23:02:54.689Z,87.17
2018-12-06T23:07:56.941Z,87.08
2018-12-06T23:12:59.189Z,86.84
2018-12-06T23:18:01.429Z,87.04
2018-12-06T23:23:03.910Z,86.88
2018-12-06T23:28:06.267Z,86.95
2018-12-06T23:33:08.661Z,86.94
2018-12-06T23:38:11.014Z,87.01
2018-12-06T23:43:13.366Z,87.01
2018-12-06T23:48:15.600Z,86.80
2018-12-06T23:53:17.884Z,86.76
2018-12-06T23:58:20.122Z,86.51
